Time;durP1;ratioP1;P1;durP2;ratioP2;P2;SDS_P1;SDS_P2;PMS_P1;PMS_P2;Temp;Humidity;BMP_temperature;BMP_pressure;BME280_temperature;BME280_humidity;BME280_pressure;Samples;Min_cycle;Max_cycle;Signal;HPM_P1;HPM_P2
2022/09/08 00:01:21;;;;;;;25.38;21.73;;;;;;;19.74;100.00;99987.09;5055041;28;20096;-74
2022/09/08 00:03:50;;;;;;;23.80;21.33;;;;;;;19.72;100.00;100002.66;5044094;28;20081;-75
2022/09/08 00:06:19;;;;;;;25.27;20.48;;;;;;;19.71;100.00;99987.44;5036427;28;20149;-75
2022/09/08 00:08:48;;;;;;;25.25;21.17;;;;;;;19.74;100.00;99987.09;5036010;28;20072;-75
2022/09/08 00:11:19;;;;;;;24.23;21.10;;;;;;;19.71;100.00;99987.44;5035720;28;20065;-75
2022/09/08 00:13:48;;;;;;;24.58;21.10;;;;;;;19.63;100.00;99977.38;5035948;28;20041;-75
2022/09/08 00:16:18;;;;;;;24.50;21.77;;;;;;;19.65;100.00;99985.34;5035233;28;20072;-75
2022/09/08 00:18:50;;;;;;;25.77;21.92;;;;;;;19.69;100.00;99981.34;5034568;28;20049;-73
2022/09/08 00:21:20;;;;;;;29.35;21.40;;;;;;;19.71;100.00;99979.31;5035112;28;20045;-73
2022/09/08 00:23:48;;;;;;;27.23;21.80;;;;;;;19.64;100.00;99967.41;5034384;28;20053;-73
2022/09/08 00:26:18;;;;;;;26.65;22.55;;;;;;;19.65;100.00;99969.13;5035462;28;20080;-73
2022/09/08 00:28:46;;;;;;;24.98;21.38;;;;;;;19.68;100.00;99966.09;5035716;28;20153;-73
2022/09/08 00:31:15;;;;;;;22.90;19.98;;;;;;;19.60;100.00;99969.59;5035175;28;20049;-73
2022/09/08 00:33:44;;;;;;;24.85;22.05;;;;;;;19.67;100.00;99967.09;5035118;28;20129;-74
2022/09/08 00:36:15;;;;;;;25.10;21.80;;;;;;;19.71;100.00;99966.63;5035261;28;20132;-72
2022/09/08 00:38:44;;;;;;;26.38;21.30;;;;;;;19.60;100.00;99960.63;5034847;28;20095;-71
2022/09/08 00:41:13;;;;;;;24.83;21.70;;;;;;;19.64;100.00;99956.59;5035037;28;20049;-72
2022/09/08 00:43:49;;;;;;;26.58;22.15;;;;;;;19.66;100.00;99958.13;5035131;28;20056;-73
2022/09/08 00:46:24;;;;;;;25.75;22.20;;;;;;;19.52;100.00;99947.00;5034597;28;20554;-73
2022/09/08 00:48:58;;;;;;;25.88;22.25;;;;;;;19.44;100.00;99955.91;5035072;28;20443;-72
2022/09/08 00:51:28;;;;;;;25.20;22.52;;;;;;;19.40;100.00;99947.25;5033416;28;20054;-73
2022/09/08 00:53:57;;;;;;;26.58;22.98;;;;;;;19.40;100.00;99949.13;5034798;28;20047;-73
2022/09/08 00:56:28;;;;;;;24.60;21.27;;;;;;;19.41;100.00;99930.03;5034716;28;20128;-74
2022/09/08 00:58:57;;;;;;;24.50;21.92;;;;;;;19.34;100.00;99942.47;5034855;28;20044;-74
2022/09/08 01:01:25;;;;;;;25.25;22.05;;;;;;;19.37;100.00;99944.00;5034664;28;20128;-74
2022/09/08 01:03:55;;;;;;;27.45;21.50;;;;;;;19.36;100.00;99945.84;5034752;28;20044;-74
2022/09/08 01:15:11;;;;;;;25.65;21.60;;;;;;;19.27;100.00;99960.31;5034726;28;20056;-74
2022/09/08 01:17:39;;;;;;;26.20;22.50;;;;;;;19.20;100.00;99959.22;5034536;28;20053;-75
2022/09/08 01:20:09;;;;;;;26.15;22.40;;;;;;;19.17;100.00;99954.13;5034110;28;20443;-74
2022/09/08 01:23:02;;;;;;;25.33;22.30;;;;;;;19.30;100.00;99940.22;5031452;28;20072;-75
2022/09/08 01:25:50;;;;;;;26.65;21.90;;;;;;;19.34;100.00;99942.47;5014271;28;20499;-74
2022/09/08 01:28:25;;;;;;;26.00;22.33;;;;;;;19.25;100.00;99940.69;5014500;28;20049;-74
2022/09/08 01:30:54;;;;;;;27.13;23.75;;;;;;;19.27;100.00;99946.78;5014585;28;20100;-74
2022/09/08 01:33:23;;;;;;;30.13;24.27;;;;;;;19.20;100.00;99937.59;5014248;28;20382;-75
2022/09/08 01:35:51;;;;;;;28.27;23.67;;;;;;;19.12;100.00;99934.84;5014309;28;20046;-72
2022/09/08 01:38:19;;;;;;;26.48;22.73;;;;;;;19.04;100.00;99937.47;5014202;28;20134;-75
2022/09/08 01:40:47;;;;;;;26.35;23.52;;;;;;;18.98;100.00;99938.06;5014558;28;20041;-74
2022/09/08 01:43:16;;;;;;;25.65;22.58;;;;;;;19.11;100.00;99941.25;5022223;28;20049;-71
2022/09/08 01:45:45;;;;;;;25.95;23.15;;;;;;;19.09;100.00;99935.97;5020937;28;20063;-72
2022/09/08 01:48:14;;;;;;;29.00;23.40;;;;;;;19.05;100.00;99945.41;5013822;28;20096;-72
2022/09/08 01:50:42;;;;;;;27.30;24.13;;;;;;;19.04;100.00;99950.97;5013766;28;20109;-75
2022/09/08 01:53:10;;;;;;;27.08;22.42;;;;;;;18.98;100.00;99943.47;5014047;28;20092;-74
2022/09/08 01:55:39;;;;;;;26.55;23.67;;;;;;;18.91;100.00;99948.63;5013869;28;20501;-75
2022/09/08 01:58:08;;;;;;;26.33;23.00;;;;;;;18.89;100.00;99945.22;5013773;28;20046;-73
2022/09/08 02:00:40;;;;;;;29.45;24.13;;;;;;;18.83;100.00;99946.72;5013868;28;20046;-72
2022/09/08 02:03:12;;;;;;;27.27;23.63;;;;;;;18.82;100.00;99945.00;5013947;28;20049;-73
2022/09/08 02:05:40;;;;;;;26.15;22.63;;;;;;;18.86;100.00;99940.16;5013580;28;20081;-72
2022/09/08 02:08:09;;;;;;;29.70;24.30;;;;;;;18.83;100.00;99935.91;5013872;28;20060;-72
2022/09/08 02:10:38;;;;;;;28.83;24.17;;;;;;;18.87;100.00;99942.69;5013658;28;20038;-73
2022/09/08 02:13:07;;;;;;;29.15;25.77;;;;;;;18.86;100.00;99941.00;5013465;28;20096;-73
2022/09/08 02:15:39;;;;;;;28.55;24.77;;;;;;;18.79;100.00;99939.91;5013494;28;20096;-74
2022/09/08 02:18:08;;;;;;;29.08;25.60;;;;;;;18.73;100.00;99935.13;5013647;28;20061;-73
2022/09/08 02:20:37;;;;;;;28.42;25.42;;;;;;;18.71;100.00;99937.09;5013533;28;20488;-73
2022/09/08 02:23:05;;;;;;;28.75;25.65;;;;;;;18.66;100.00;99933.16;5013561;28;20463;-71
2022/09/08 02:25:33;;;;;;;30.40;26.02;;;;;;;18.64;100.00;99932.44;5011979;28;20050;-73
2022/09/08 02:28:02;;;;;;;28.20;25.33;;;;;;;18.63;100.00;99936.16;5013340;28;20050;-73
2022/09/08 02:30:30;;;;;;;28.70;25.60;;;;;;;18.64;100.00;99935.16;5013088;28;20054;-73
2022/09/08 02:32:59;;;;;;;31.80;26.42;;;;;;;18.67;100.00;99938.41;5013570;28;20050;-72
2022/09/08 02:35:27;;;;;;;27.20;24.23;;;;;;;18.71;100.00;99937.09;5013204;28;20052;-73
2022/09/08 02:37:56;;;;;;;29.65;24.88;;;;;;;18.71;100.00;99936.25;5012164;28;20428;-73
2022/09/08 02:40:24;;;;;;;29.38;25.48;;;;;;;18.58;100.00;99942.00;5013104;28;20042;-72
2022/09/08 02:42:53;;;;;;;28.38;25.38;;;;;;;18.56;100.00;99952.09;5011787;28;20505;-73
2022/09/08 02:45:22;;;;;;;29.35;26.25;;;;;;;18.54;100.00;99946.00;5013098;28;20107;-73
2022/09/08 02:47:50;;;;;;;33.47;26.95;;;;;;;18.52;100.00;99942.59;5013291;28;20041;-72
2022/09/08 02:50:18;;;;;;;29.95;26.73;;;;;;;18.51;100.00;99935.47;5012932;28;20137;-72
2022/09/08 02:52:49;;;;;;;29.38;25.65;;;;;;;18.51;100.00;99930.94;5022245;28;20492;-73
2022/09/08 02:55:19;;;;;;;29.73;25.80;;;;;;;18.50;100.00;99929.22;5032606;28;20550;-74
2022/09/08 02:57:47;;;;;;;28.75;25.60;;;;;;;18.51;100.00;99940.88;5017966;28;20046;-75
2022/09/08 03:00:16;;;;;;;28.58;25.55;;;;;;;18.46;100.00;99924.31;5014203;28;20092;-76
2022/09/08 03:02:44;;;;;;;30.33;25.33;;;;;;;18.46;100.00;99922.44;5015799;28;20108;-75
2022/09/08 03:05:12;;;;;;;29.80;24.65;;;;;;;18.47;100.00;99931.41;5017232;28;20073;-74
2022/09/08 03:07:41;;;;;;;27.52;24.63;;;;;;;18.43;100.00;99932.69;5016951;28;20050;-75
2022/09/08 03:10:09;;;;;;;30.05;25.38;;;;;;;18.34;100.00;99917.41;5017129;28;20057;-76
2022/09/08 03:12:39;;;;;;;31.92;26.60;;;;;;;18.28;100.00;99925.09;5015289;28;20515;-77
2022/09/08 03:15:09;;;;;;;30.55;27.15;;;;;;;18.28;100.00;99925.09;5015920;28;20456;-77
2022/09/08 03:17:37;;;;;;;28.98;25.42;;;;;;;18.31;100.00;99922.09;5016819;28;20440;-77
2022/09/08 03:20:07;;;;;;;28.38;25.00;;;;;;;18.33;100.00;99918.38;5017117;28;20046;-77
2022/09/08 03:22:35;;;;;;;31.35;24.60;;;;;;;18.32;100.00;99920.22;5016414;28;20124;-77
2022/09/08 03:25:03;;;;;;;32.00;25.48;;;;;;;18.37;100.00;99919.81;5016954;28;20100;-73
2022/09/08 03:27:31;;;;;;;34.72;26.52;;;;;;;18.36;100.00;99928.91;5016620;28;20092;-75
2022/09/08 03:30:01;;;;;;;29.45;26.25;;;;;;;18.36;100.00;99926.19;5016819;28;20053;-75
2022/09/08 03:32:32;;;;;;;31.92;26.23;;;;;;;18.29;100.00;99926.78;5016444;28;20041;-75
2022/09/08 03:35:01;;;;;;;32.22;26.85;;;;;;;18.27;100.00;99920.69;5016344;28;20543;-75
2022/09/08 03:37:30;;;;;;;32.38;27.02;;;;;;;18.25;100.00;99920.00;5016481;28;20042;-74
2022/09/08 03:39:58;;;;;;;29.35;25.48;;;;;;;18.21;100.00;99926.69;5016584;28;20045;-74
2022/09/08 03:42:26;;;;;;;29.15;25.65;;;;;;;18.34;100.00;99920.97;5016340;28;20136;-76
2022/09/08 03:44:54;;;;;;;30.15;26.90;;;;;;;18.43;100.00;99927.28;5016246;28;20049;-75
2022/09/08 03:47:24;;;;;;;29.02;25.80;;;;;;;18.38;100.00;99929.59;5016026;28;20080;-77
2022/09/08 03:49:52;;;;;;;30.13;25.58;;;;;;;18.37;100.00;99925.19;5016256;28;20061;-75
2022/09/08 03:52:20;;;;;;;30.85;25.52;;;;;;;18.37;100.00;99934.16;5016510;28;20053;-75
2022/09/08 03:54:54;;;;;;;29.42;26.23;;;;;;;18.29;100.00;99945.69;5016378;28;20129;-73
2022/09/08 03:57:24;;;;;;;29.85;26.10;;;;;;;18.22;100.00;99951.81;5015124;28;20054;-74
2022/09/08 03:59:54;;;;;;;31.90;26.85;;;;;;;18.18;100.00;99953.97;5016103;28;20045;-74
2022/09/08 04:02:25;;;;;;;29.70;26.38;;;;;;;18.08;100.00;99942.38;5016000;28;20563;-74
2022/09/08 04:04:56;;;;;;;30.50;26.23;;;;;;;18.10;100.00;99953.00;5016302;28;20049;-74
2022/09/08 04:07:27;;;;;;;30.02;25.95;;;;;;;18.11;100.00;99946.63;5015846;28;20053;-74
2022/09/08 04:09:56;;;;;;;31.92;26.63;;;;;;;18.16;100.00;99944.34;5015931;28;20120;-74
2022/09/08 04:12:25;;;;;;;30.25;27.13;;;;;;;18.07;100.00;99942.53;5014759;28;20053;-74
2022/09/08 04:14:54;;;;;;;30.65;27.08;;;;;;;18.10;100.00;99948.47;5015672;28;20374;-74
2022/09/08 04:17:24;;;;;;;30.15;26.88;;;;;;;18.12;100.00;99943.75;5014811;28;20056;-74
2022/09/08 04:19:52;;;;;;;32.42;26.95;;;;;;;18.19;100.00;99949.44;5016049;28;20049;-74
2022/09/08 04:22:24;;;;;;;30.63;27.33;;;;;;;18.14;100.00;99966.06;5014506;28;20089;-75
2022/09/08 04:24:52;;;;;;;30.15;26.85;;;;;;;18.19;100.00;99969.19;5015844;28;20107;-75
2022/09/08 04:27:25;;;;;;;32.22;27.10;;;;;;;18.19;100.00;99966.47;5015862;28;20053;-75
2022/09/08 04:29:53;;;;;;;29.23;25.73;;;;;;;18.18;100.00;99964.78;5014388;28;20131;-75
2022/09/08 04:32:21;;;;;;;37.35;28.05;;;;;;;18.18;100.00;99959.38;5014333;28;20108;-76
2022/09/08 04:34:51;;;;;;;30.02;26.70;;;;;;;18.30;100.00;99954.63;5018871;28;20038;-76
2022/09/08 04:37:20;;;;;;;30.35;25.38;;;;;;;18.42;100.00;99949.88;5021457;28;20038;-76
2022/09/08 04:39:50;;;;;;;30.60;26.33;;;;;;;18.53;100.00;99949.72;5016055;28;20536;-75
2022/09/08 04:42:21;;;;;;;29.17;25.15;;;;;;;18.66;100.00;99935.88;5014219;28;20045;-74
2022/09/08 04:44:49;;;;;;;35.40;25.90;;;;;;;18.74;100.00;99935.97;5015203;28;20046;-73
2022/09/08 04:47:17;;;;;;;32.92;25.67;;;;;;;18.61;100.00;99944.38;5014042;28;20133;-72
2022/09/08 04:49:48;;;;;;;31.13;26.17;;;;;;;18.67;100.00;99935.72;5013597;28;20111;-72
2022/09/08 04:52:17;;;;;;;29.88;25.75;;;;;;;18.67;100.00;99932.16;5015009;28;20048;-73
2022/09/08 04:54:45;;;;;;;32.00;26.67;;;;;;;18.68;100.00;99926.59;5013432;28;20053;-76
2022/09/08 04:57:15;;;;;;;30.55;26.30;;;;;;;18.77;100.00;99931.09;5015101;28;20052;-75
2022/09/08 04:59:43;;;;;;;31.85;25.50;;;;;;;19.08;100.00;99941.53;5013399;28;20064;-76
2022/09/08 05:02:11;;;;;;;29.35;25.02;;;;;;;19.18;100.00;99936.91;5015126;28;20054;-75
2022/09/08 05:04:39;;;;;;;30.17;24.92;;;;;;;19.09;100.00;99951.34;5014507;28;20056;-76
2022/09/08 05:07:08;;;;;;;28.98;25.30;;;;;;;19.10;100.00;99959.28;5013637;28;20046;-77
2022/09/08 05:09:38;;;;;;;35.90;25.95;;;;;;;19.17;100.00;99963.09;5013440;28;20536;-76
2022/09/08 05:12:06;;;;;;;33.03;25.27;;;;;;;19.27;100.00;99948.63;5015026;28;20042;-77
2022/09/08 05:14:34;;;;;;;28.38;24.63;;;;;;;19.49;100.00;99948.16;5014159;28;20566;-72
2022/09/08 05:17:02;;;;;;;35.40;25.67;;;;;;;19.67;100.00;99948.16;5013039;28;20062;-76
2022/09/08 05:19:31;;;;;;;29.80;24.77;;;;;;;19.87;100.00;99956.91;5014470;28;20052;-77
2022/09/08 05:22:00;;;;;;;29.58;24.17;;;;;;;19.74;100.00;99957.34;5013647;28;20466;-76
2022/09/08 05:24:28;;;;;;;28.63;23.85;;;;;;;19.70;100.00;99964.09;5014408;28;20481;-75
2022/09/08 05:26:57;;;;;;;28.90;23.42;;;;;;;19.68;100.00;99961.53;5013225;28;20050;-75
2022/09/08 05:29:25;;;;;;;28.00;23.27;;;;;;;19.77;100.00;99961.59;5014126;28;20046;-80
2022/09/08 05:31:53;;;;;;;25.83;22.42;;;;;;;19.97;100.00;99966.63;5014276;28;20050;-81
2022/09/08 05:34:22;;;;;;;26.83;21.85;;;;;;;20.23;100.00;99961.19;5014980;28;20049;-79
2022/09/08 05:36:50;;;;;;;25.83;21.95;;;;;;;20.00;100.00;99963.63;5012792;28;20483;-78
2022/09/08 05:39:18;;;;;;;27.90;21.20;;;;;;;20.11;100.00;99964.34;5013081;28;20054;-71
2022/09/08 05:41:46;;;;;;;26.88;21.60;;;;;;;20.14;100.00;99962.16;5013770;28;20068;-70
2022/09/08 05:44:16;;;;;;;25.90;20.60;;;;;;;20.20;100.00;99964.25;5013887;28;20041;-75
2022/09/08 05:46:44;;;;;;;27.13;20.45;;;;;;;20.36;100.00;99963.47;5014554;28;20048;-74
2022/09/08 05:49:12;;;;;;;29.55;20.67;;;;;;;20.54;100.00;99974.25;5013821;28;20499;-75
2022/09/08 05:51:40;;;;;;;23.17;18.27;;;;;;;20.56;100.00;99969.53;5012392;28;20057;-74
2022/09/08 05:54:08;;;;;;;25.45;20.00;;;;;;;20.72;100.00;99964.16;5013892;28;20096;-74
2022/09/08 05:56:36;;;;;;;22.55;17.58;;;;;;;20.75;100.00;99957.53;5013455;28;20066;-74
2022/09/08 05:59:06;;;;;;;21.98;17.77;;;;;;;21.04;100.00;99946.28;5013822;28;20137;-77
2022/09/08 06:01:36;;;;;;;20.90;16.33;;;;;;;20.99;100.00;99954.06;5013433;28;20050;-77
2022/09/08 06:04:05;;;;;;;21.35;16.67;;;;;;;21.14;100.00;99953.25;5013737;28;20455;-79
2022/09/08 06:06:34;;;;;;;22.38;16.77;;;;;;;21.26;100.00;99950.22;5012288;28;20057;-80
2022/09/08 06:09:03;;;;;;;21.85;16.35;;;;;;;21.58;100.00;99957.53;5013818;28;20053;-79
2022/09/08 06:11:33;;;;;;;21.73;15.77;;;;;;;21.57;100.00;99959.41;5013624;28;20052;-79
2022/09/08 06:14:02;;;;;;;20.65;15.95;;;;;;;21.66;100.00;99954.81;5012829;28;20107;-79
2022/09/08 06:16:30;;;;;;;22.50;15.35;;;;;;;21.89;100.00;99950.38;5012187;28;20460;-75
2022/09/08 06:19:01;;;;;;;20.27;14.93;;;;;;;22.01;100.00;99942.72;5012057;28;20057;-75
2022/09/08 06:21:31;;;;;;;21.35;15.27;;;;;;;21.91;100.00;99945.63;5013493;28;20049;-75
2022/09/08 06:24:02;;;;;;;16.80;13.68;;;;;;;22.22;100.00;99945.75;5013649;28;20049;-76
2022/09/08 06:27:00;;;;;;;18.98;13.45;;;;;;;22.12;100.00;99941.53;5012156;28;20054;-78
2022/09/08 06:29:59;;;;;;;19.33;14.23;;;;;;;22.19;100.00;99928.94;5012165;28;20137;-77
2022/09/08 06:32:33;;;;;;;21.33;14.73;;;;;;;22.41;100.00;99930.91;5010575;28;20092;-76
2022/09/08 06:35:08;;;;;;;18.27;13.98;;;;;;;22.66;100.00;99928.91;5012186;28;20046;-76
2022/09/08 06:37:43;;;;;;;14.90;13.25;;;;;;;22.54;100.00;99931.19;5012772;28;20120;-76
2022/09/08 06:40:18;;;;;;;18.08;12.75;;;;;;;22.75;100.00;99937.88;5013434;28;20100;-76
2022/09/08 06:42:52;;;;;;;16.33;13.82;;;;;;;22.78;100.00;99935.66;5012812;28;20511;-76
2022/09/08 06:45:26;;;;;;;17.55;13.48;;;;;;;23.37;100.00;99925.09;5013316;28;20108;-76
2022/09/08 06:48:12;;;;;;;18.40;14.23;;;;;;;23.69;100.00;99921.25;5013065;28;20061;-76
2022/09/08 06:50:57;;;;;;;16.10;13.02;;;;;;;23.88;100.00;99919.88;5012952;28;20064;-76
2022/09/08 06:53:28;;;;;;;18.55;12.77;;;;;;;23.91;100.00;99916.75;5013113;28;20503;-76
2022/09/08 06:56:02;;;;;;;19.50;14.05;;;;;;;23.62;100.00;99908.53;5011419;28;20053;-76
2022/09/08 06:58:54;;;;;;;17.38;14.43;;;;;;;23.35;100.00;99897.19;5011571;28;20053;-76
2022/09/08 07:01:25;;;;;;;17.35;14.05;;;;;;;22.95;100.00;99902.94;5013390;28;20539;-76
2022/09/08 07:04:08;;;;;;;19.80;14.57;;;;;;;22.63;100.00;99895.81;5012982;28;20053;-76
2022/09/08 07:06:47;;;;;;;18.45;14.23;;;;;;;22.37;100.00;99898.81;5012941;28;20112;-76
2022/09/08 07:09:24;;;;;;;18.23;13.23;;;;;;;22.37;100.00;99902.38;5013015;28;20485;-76
2022/09/08 07:12:06;;;;;;;19.50;13.93;;;;;;;22.50;100.00;99901.84;5011304;28;20393;-76
2022/09/08 07:15:18;;;;;;;16.50;13.07;;;;;;;22.20;100.00;99904.34;5011879;28;20108;-75
2022/09/08 07:17:51;;;;;;;18.27;13.60;;;;;;;22.52;100.00;99894.34;5012787;28;20034;-75
2022/09/08 07:20:20;;;;;;;21.55;13.82;;;;;;;22.86;100.00;99902.16;5013116;28;20042;-75
2022/09/08 07:22:55;;;;;;;16.40;13.45;;;;;;;22.97;100.00;99903.59;5012867;28;20432;-75
2022/09/08 07:25:28;;;;;;;17.55;12.68;;;;;;;23.13;100.00;99908.94;5011906;28;20050;-75
2022/09/08 07:28:04;;;;;;;16.38;13.25;;;;;;;23.20;100.00;99899.03;5011275;28;20061;-75
2022/09/08 07:30:34;;;;;;;21.25;14.30;;;;;;;23.10;100.00;99904.72;5012978;28;20053;-76
2022/09/08 07:33:11;;;;;;;19.65;13.45;;;;;;;23.19;100.00;99902.78;5012959;28;20049;-75
2022/09/08 07:36:07;;;;;;;14.57;12.38;;;;;;;23.09;100.00;99902.19;5011198;28;20053;-75
2022/09/08 07:38:43;;;;;;;16.73;12.73;;;;;;;23.26;100.00;99898.31;5011155;28;20074;-76
2022/09/08 07:41:20;;;;;;;19.10;12.27;;;;;;;23.40;100.00;99904.81;5012844;28;20046;-75
2022/09/08 07:43:50;;;;;;;17.15;13.02;;;;;;;23.52;100.00;99902.50;5011279;28;20054;-74
2022/09/08 07:46:36;;;;;;;20.50;12.75;;;;;;;23.67;100.00;99898.81;5011097;28;20054;-76
2022/09/08 07:49:14;;;;;;;16.63;12.75;;;;;;;23.72;100.00;99897.38;5016105;28;20057;-77
2022/09/08 07:51:54;;;;;;;15.02;13.43;;;;;;;23.69;100.00;99906.78;5014841;28;20074;-77
2022/09/08 07:54:35;;;;;;;15.45;12.50;;;;;;;23.68;100.00;99907.81;5016501;28;20045;-76
2022/09/08 07:57:12;;;;;;;14.77;12.65;;;;;;;23.68;100.00;99911.38;5014895;28;20150;-76
2022/09/08 08:00:05;;;;;;;19.35;12.82;;;;;;;23.78;100.00;99905.66;5014537;28;20050;-76
2022/09/08 08:02:48;;;;;;;17.80;12.85;;;;;;;23.74;100.00;99912.53;5016377;28;20444;-76
2022/09/08 08:05:19;;;;;;;;;;;;;;;23.84;100.00;99902.22;5016402;28;20044;-76
2022/09/08 08:07:58;;;;;;;15.98;12.23;;;;;;;23.71;100.00;99921.06;5014496;28;19949;-76
2022/09/08 08:10:35;;;;;;;18.13;12.40;;;;;;;23.88;100.00;99919.03;5014753;28;20046;-76
2022/09/08 08:13:15;;;;;;;14.93;12.48;;;;;;;23.86;100.00;99918.38;5021808;28;20046;-76
2022/09/08 08:15:46;;;;;;;14.50;12.52;;;;;;;23.93;100.00;99912.00;5019615;28;20092;-77
2022/09/08 08:18:22;;;;;;;18.20;12.55;;;;;;;24.11;100.00;99918.94;5014615;28;20042;-76
2022/09/08 08:20:54;;;;;;;17.95;12.70;;;;;;;24.17;100.00;99920.91;5015746;28;20507;-76
2022/09/08 08:23:41;;;;;;;16.77;13.60;;;;;;;24.28;100.00;99925.88;5014867;28;20050;-76
2022/09/08 08:26:23;;;;;;;16.48;12.30;;;;;;;24.35;100.00;99926.88;5014319;28;20137;-76
2022/09/08 08:29:01;;;;;;;17.30;11.75;;;;;;;24.50;100.00;99924.94;5013764;28;20108;-76
2022/09/08 08:31:40;;;;;;;16.63;12.07;;;;;;;24.54;100.00;99926.28;5015993;28;20485;-76
2022/09/08 08:34:15;;;;;;;15.52;11.73;;;;;;;24.52;100.00;99928.34;5015031;28;20493;-76
2022/09/08 08:36:48;;;;;;;13.88;11.00;;;;;;;24.27;100.00;99927.75;5013774;28;20057;-77
2022/09/08 08:39:20;;;;;;;16.27;12.75;;;;;;;24.22;100.00;99922.06;5015100;28;20088;-76
2022/09/08 08:42:12;;;;;;;20.67;12.20;;;;;;;24.41;100.00;99925.25;5013981;28;20201;-76
2022/09/08 08:44:57;;;;;;;17.83;12.30;;;;;;;24.45;100.00;99923.84;5015176;28;20050;-78
2022/09/08 08:48:00;;;;;;;17.77;11.68;;;;;;;24.48;100.00;99921.56;5015009;28;20042;-77
2022/09/08 08:50:47;;;;;;;18.38;12.85;;;;;;;24.40;100.00;99923.56;5015296;28;20052;-76
2022/09/08 08:53:49;;;;;;;17.58;12.05;;;;;;;24.64;100.00;99925.13;5015646;28;20053;-76
2022/09/08 08:56:34;;;;;;;18.45;11.82;;;;;;;24.74;100.00;99904.69;5015198;28;20049;-76
2022/09/08 08:59:42;;;;;;;18.40;12.05;;;;;;;24.73;100.00;99913.06;5014400;28;20393;-76
2022/09/08 09:02:43;;;;;;;14.30;11.55;;;;;;;24.90;100.00;99908.22;5003473;28;20436;-76
2022/09/08 09:05:34;;;;;;;18.50;11.65;;;;;;;25.04;100.00;99908.19;4999848;28;20050;-76
2022/09/08 09:08:25;;;;;;;15.60;10.90;;;;;;;25.28;100.00;99898.75;5014563;28;20050;-76
2022/09/08 09:11:19;;;;;;;18.77;12.05;;;;;;;25.33;100.00;99892.72;5013404;28;20441;-76
2022/09/08 09:14:08;;;;;;;14.82;12.13;;;;;;;25.36;100.00;99889.59;5013560;28;20046;-76
2022/09/08 09:16:56;;;;;;;18.15;11.88;;;;;;;25.26;100.00;99868.09;5014561;28;20400;-76
2022/09/08 09:19:58;;;;;;;14.32;12.00;;;;;;;25.41;100.00;99868.03;5013542;28;20123;-75
2022/09/08 09:22:38;;;;;;;16.35;10.82;;;;;;;25.60;100.00;99872.81;5014204;28;20054;-74
2022/09/08 09:25:19;;;;;;;14.55;11.20;;;;;;;25.58;100.00;99863.13;5012943;28;20073;-76
2022/09/08 09:27:57;;;;;;;13.57;11.15;;;;;;;25.55;100.00;99858.88;5013060;28;20497;-76
2022/09/08 09:30:34;;;;;;;13.82;10.70;;;;;;;25.69;100.00;99859.84;5014571;28;20382;-75
2022/09/08 09:33:24;;;;;;;12.02;10.45;;;;;;;25.88;100.00;99861.06;5014202;28;20049;-76
2022/09/08 09:36:29;;;;;;;14.27;10.70;;;;;;;25.88;100.00;99855.59;5027415;28;20046;-76
2022/09/08 09:39:32;;;;;;;13.25;10.90;;;;;;;26.02;100.00;99861.97;5013722;28;20049;-76
2022/09/08 09:42:30;;;;;;;12.63;10.18;;;;;;;25.96;100.00;99860.88;5012664;28;20054;-76
2022/09/08 09:45:17;;;;;;;14.85;10.27;;;;;;;26.08;100.00;99864.75;5005559;28;20046;-75
2022/09/08 09:48:33;;;;;;;13.25;10.00;;;;;;;26.09;100.00;99860.97;5013802;28;20077;-74
2022/09/08 09:51:19;;;;;;;15.65;10.30;;;;;;;26.22;100.00;99852.81;4972369;28;20110;-76
2022/09/08 09:54:05;;;;;;;14.50;10.05;;;;;;;26.43;100.00;99845.56;5013593;28;20437;-76
2022/09/08 09:57:12;;;;;;;16.13;10.13;;;;;;;26.50;100.00;99846.44;5013036;28;20054;-76
2022/09/08 10:00:17;;;;;;;15.93;9.97;;;;;;;26.53;100.00;99840.53;4996942;28;20049;-77
2022/09/08 10:03:21;;;;;;;14.85;9.88;;;;;;;26.61;100.00;99832.16;5013911;28;20042;-80
2022/09/08 10:06:23;;;;;;;15.20;9.75;;;;;;;26.77;100.00;99829.06;5012333;28;20069;-76
2022/09/08 10:09:10;;;;;;;16.33;9.98;;;;;;;26.75;100.00;99825.69;5013413;28;20073;-76
2022/09/08 10:11:57;;;;;;;12.10;9.20;;;;;;;26.86;100.00;99826.13;5012144;28;20420;-76
2022/09/08 10:14:48;;;;;;;12.45;9.93;;;;;;;27.07;100.00;99831.44;5012492;28;20054;-76
2022/09/08 10:17:39;;;;;;;14.25;9.68;;;;;;;27.12;100.00;99815.25;5013526;28;20038;-76
2022/09/08 10:20:46;;;;;;;12.25;9.73;;;;;;;27.17;100.00;99818.19;5013276;28;20054;-76
2022/09/08 10:24:04;;;;;;;11.95;8.95;;;;;;;27.19;100.00;99807.84;5012269;28;20042;-76
2022/09/08 10:27:10;;;;;;;11.13;8.75;;;;;;;27.26;100.00;99805.97;4933818;29;20055;-76
2022/09/08 10:30:32;;;;;;;14.65;8.98;;;;;;;27.48;100.00;99801.09;5013304;28;20151;-76
2022/09/08 10:33:28;;;;;;;12.02;8.70;;;;;;;27.52;100.00;99798.78;5013139;28;20038;-76
2022/09/08 10:36:03;;;;;;;10.43;8.32;;;;;;;27.53;100.00;99798.56;5013068;28;20042;-76
2022/09/08 10:39:00;;;;;;;12.20;9.05;;;;;;;27.68;100.00;99806.56;5012050;28;20045;-76
2022/09/08 10:42:05;;;;;;;12.07;8.77;;;;;;;27.76;100.00;99803.59;4979570;28;20600;-76
2022/09/08 10:44:42;;;;;;;10.32;8.02;;;;;;;27.87;100.00;99805.66;5012128;28;20133;-76
2022/09/08 10:47:56;;;;;;;11.80;7.45;;;;;;;27.94;100.00;99806.50;5012439;28;20061;-76
2022/09/08 10:50:30;;;;;;;7.75;6.95;;;;;;;27.91;100.00;99798.72;5013374;28;20137;-76
2022/09/08 10:53:33;;;;;;;9.30;7.18;;;;;;;27.94;100.00;99801.03;5012749;28;20050;-76
2022/09/08 10:56:25;;;;;;;9.93;7.00;;;;;;;28.06;100.00;99814.88;5013206;28;20054;-76
2022/09/08 10:59:05;;;;;;;12.43;6.90;;;;;;;28.05;100.00;99804.97;5012497;28;20042;-77
2022/09/08 11:02:14;;;;;;;9.48;6.40;;;;;;;27.89;99.79;99798.09;5011822;28;20061;-76
2022/09/08 11:05:15;;;;;;;9.13;6.32;;;;;;;27.95;99.79;99796.38;5011816;28;20054;-76
2022/09/08 11:08:07;;;;;;;10.32;5.80;;;;;;;28.06;97.16;99803.94;5011845;28;20054;-76
2022/09/08 11:10:53;;;;;;;9.38;5.65;;;;;;;28.17;86.94;99805.13;5012957;28;20415;-76
2022/09/08 11:13:28;;;;;;;10.27;5.97;;;;;;;28.21;84.83;99800.94;5012968;28;20042;-76
2022/09/08 11:16:38;;;;;;;8.38;6.13;;;;;;;28.12;78.95;99797.59;5011712;28;20056;-76
2022/09/08 11:19:32;;;;;;;10.65;6.95;;;;;;;28.23;78.26;99793.31;5011430;28;20518;-76
2022/09/08 11:22:31;;;;;;;11.95;7.00;;;;;;;28.29;74.90;99803.47;5015023;28;20049;-76
2022/09/08 11:25:15;;;;;;;11.88;6.50;;;;;;;28.36;67.41;99795.19;4995786;28;20460;-76
2022/09/08 11:27:53;;;;;;;7.82;5.75;;;;;;;28.40;64.68;99794.53;5015732;28;20049;-76
2022/09/08 11:30:23;;;;;;;10.65;5.40;;;;;;;28.39;63.79;99798.34;5016921;28;20464;-76
2022/09/08 11:33:14;;;;;;;10.60;4.97;;;;;;;28.39;58.57;99798.34;5016704;28;20049;-76
2022/09/08 11:35:53;;;;;;;10.13;5.00;;;;;;;28.50;58.91;99800.38;5015391;28;20042;-76
2022/09/08 11:38:30;;;;;;;8.57;5.15;;;;;;;28.58;58.56;99798.44;5015360;28;20053;-76
2022/09/08 11:41:46;;;;;;;10.23;5.35;;;;;;;28.72;58.57;99798.13;5016604;28;20084;-76
2022/09/08 11:44:41;;;;;;;10.93;5.22;;;;;;;28.88;57.73;99796.78;4980922;28;20058;-76
2022/09/08 11:47:41;;;;;;;7.63;4.57;;;;;;;29.14;56.08;99794.88;5021484;28;20049;-76
2022/09/08 11:50:29;;;;;;;8.65;4.45;;;;;;;29.38;54.99;99805.03;5025476;28;20060;-76
2022/09/08 11:53:27;;;;;;;7.97;4.63;;;;;;;29.39;55.19;99792.16;5018873;28;20412;-76
2022/09/08 11:56:54;;;;;;;8.65;4.30;;;;;;;29.40;54.50;99797.41;5016006;28;20038;-77
2022/09/08 11:59:40;;;;;;;9.43;4.00;;;;;;;29.44;54.11;99795.91;5014987;28;20046;-77
2022/09/08 12:02:38;;;;;;;9.20;3.95;;;;;;;29.45;54.19;99785.75;5016188;28;20045;-77
2022/09/08 12:05:23;;;;;;;8.07;3.72;;;;;;;29.57;51.53;99781.22;5016131;28;20073;-77
2022/09/08 12:08:46;;;;;;;11.05;4.07;;;;;;;29.60;51.85;99787.09;5014454;28;20081;-76